createdAt,value
2024-03-30T00:00:46.482Z,44.0302
2024-03-30T00:01:48.080Z,44.0189
2024-03-30T00:02:49.556Z,44.0038
2024-03-30T00:03:51.043Z,43.9682
2024-03-30T00:04:52.626Z,43.9449
2024-03-30T00:05:54.134Z,43.9423
2024-03-30T00:06:55.652Z,44.0158
2024-03-30T00:07:57.290Z,44.0026
2024-03-30T00:08:58.711Z,43.9309
2024-03-30T00:10:00.226Z,43.9496
2024-03-30T00:11:01.762Z,43.9109
2024-03-30T00:12:03.320Z,43.9514
2024-03-30T00:13:04.826Z,43.9598
2024-03-30T00:14:06.366Z,43.9124
2024-03-30T00:15:07.960Z,43.9072
2024-03-30T00:16:09.411Z,43.8852
2024-03-30T00:17:10.971Z,43.8891
2024-03-30T00:18:12.482Z,43.8975
2024-03-30T00:19:13.993Z,43.8845
2024-03-30T00:20:15.548Z,43.7962
2024-03-30T00:21:17.068Z,43.8280
2024-03-30T00:22:18.570Z,43.8086
2024-03-30T00:23:20.107Z,43.7717
2024-03-30T00:24:21.714Z,43.7634
2024-03-30T00:25:23.160Z,43.7798
2024-03-30T00:26:24.696Z,43.7617
2024-03-30T00:27:26.244Z,43.7840
2024-03-30T00:28:27.767Z,43.6906
2024-03-30T00:29:29.361Z,43.7401
2024-03-30T00:30:30.819Z,43.7249
2024-03-30T00:31:32.364Z,43.6692
2024-03-30T00:32:33.890Z,43.6927
2024-03-30T00:33:35.411Z,43.7050
2024-03-30T00:34:36.943Z,43.7026
2024-03-30T00:35:38.467Z,43.6492
2024-03-30T00:36:40.081Z,43.6748
2024-03-30T00:37:41.524Z,43.6645
2024-03-30T00:38:43.052Z,43.6894
2024-03-30T00:39:44.588Z,43.6651
2024-03-30T00:40:46.764Z,43.6358
2024-03-30T00:41:47.688Z,43.6046
2024-03-30T00:43:00.373Z,43.5886
2024-03-30T00:43:50.726Z,43.6181
2024-03-30T00:44:52.277Z,43.6426
2024-03-30T00:45:53.754Z,43.6308
2024-03-30T00:46:55.302Z,43.5840
2024-03-30T00:47:56.862Z,43.5719
2024-03-30T00:48:58.365Z,43.5735
2024-03-30T00:49:59.894Z,43.5512
2024-03-30T00:51:01.426Z,43.5695
2024-03-30T00:52:02.933Z,43.5882
2024-03-30T00:53:04.471Z,43.6112
2024-03-30T00:54:06.001Z,43.6234
2024-03-30T00:55:07.609Z,43.6430
2024-03-30T00:56:09.079Z,43.5886
2024-03-30T00:57:10.587Z,43.5656
2024-03-30T00:58:12.129Z,43.5513
2024-03-30T00:59:13.732Z,43.5563
2024-03-30T01:00:15.182Z,43.5261
2024-03-30T01:01:16.713Z,43.5105
2024-03-30T01:02:18.242Z,43.4839
2024-03-30T01:03:19.859Z,43.4829
2024-03-30T01:04:21.317Z,43.5348
2024-03-30T01:05:22.833Z,43.5517
2024-03-30T01:06:24.439Z,43.5412
2024-03-30T01:07:25.981Z,43.5523
2024-03-30T01:08:27.439Z,43.5525
2024-03-30T01:09:28.950Z,43.4906
2024-03-30T01:10:30.531Z,43.4662
2024-03-30T01:11:32.027Z,43.5261
2024-03-30T01:12:33.575Z,43.4850
2024-03-30T01:13:35.099Z,43.4834
2024-03-30T01:14:36.614Z,43.5359
2024-03-30T01:15:38.230Z,43.5744
2024-03-30T01:16:42.233Z,43.5853
2024-03-30T01:17:41.224Z,43.5813
2024-03-30T01:18:42.732Z,43.5792
2024-03-30T01:19:44.377Z,43.5666
2024-03-30T01:20:45.804Z,43.5788
2024-03-30T01:21:47.316Z,43.6152
2024-03-30T01:22:48.834Z,43.5946
2024-03-30T01:23:50.390Z,43.5566
2024-03-30T01:24:51.928Z,43.5439
2024-03-30T01:25:53.518Z,43.5455
2024-03-30T01:26:54.976Z,43.5540
2024-03-30T01:27:56.510Z,43.5607
2024-03-30T01:28:58.051Z,43.5705
2024-03-30T01:29:59.561Z,43.6030
2024-03-30T01:31:01.125Z,43.6452
2024-03-30T01:32:02.653Z,43.6159
2024-03-30T01:33:04.161Z,43.6014
2024-03-30T01:34:05.681Z,43.5946
2024-03-30T01:35:07.213Z,43.5830
2024-03-30T01:36:08.751Z,43.5843
2024-03-30T01:37:10.364Z,43.5669
2024-03-30T01:38:11.822Z,43.6063
2024-03-30T01:39:13.317Z,43.6430
2024-03-30T01:40:14.877Z,43.6176
2024-03-30T01:41:16.396Z,43.6294
2024-03-30T01:42:17.927Z,43.6362
2024-03-30T01:43:19.438Z,43.5982
2024-03-30T01:44:21.039Z,43.6064
2024-03-30T01:45:22.525Z,43.6210
2024-03-30T01:46:24.033Z,43.6142
2024-03-30T01:47:25.594Z,43.6232
2024-03-30T01:48:27.093Z,43.6556
2024-03-30T01:49:28.623Z,43.6402
2024-03-30T01:50:30.159Z,43.6331
2024-03-30T01:51:31.698Z,43.6221
2024-03-30T01:52:33.320Z,43.6211
2024-03-30T01:53:44.037Z,43.6518
2024-03-30T01:54:36.290Z,43.6365
2024-03-30T01:55:37.855Z,43.6307
2024-03-30T01:56:39.328Z,43.6385
2024-03-30T01:57:40.874Z,43.6492
2024-03-30T01:58:42.414Z,43.6480
2024-03-30T01:59:43.943Z,43.6441
2024-03-30T02:00:45.446Z,43.6447
2024-03-30T02:01:47.091Z,43.6074
2024-03-30T02:02:48.528Z,43.6163
2024-03-30T02:03:50.027Z,43.6370
2024-03-30T02:04:51.580Z,43.6412
2024-03-30T02:05:53.096Z,43.6614
2024-03-30T02:06:54.644Z,43.6691
2024-03-30T02:07:56.223Z,43.6581
2024-03-30T02:08:57.693Z,43.6543
2024-03-30T02:09:59.220Z,43.6205
2024-03-30T02:11:00.737Z,43.6392
2024-03-30T02:12:02.274Z,43.6525
2024-03-30T02:13:03.816Z,43.6434
2024-03-30T02:14:05.333Z,43.6602
2024-03-30T02:15:06.851Z,43.6907
2024-03-30T02:16:08.447Z,43.6906
2024-03-30T02:17:09.937Z,43.6234
2024-03-30T02:18:11.457Z,43.6213
2024-03-30T02:19:12.974Z,43.6118
2024-03-30T02:20:14.502Z,43.6265
2024-03-30T02:21:16.064Z,43.6232
2024-03-30T02:22:17.622Z,43.6103
2024-03-30T02:23:19.106Z,43.6359
2024-03-30T02:24:20.608Z,43.6554
2024-03-30T02:25:22.239Z,43.6584
2024-03-30T02:26:23.667Z,43.5950
2024-03-30T02:27:25.250Z,43.6060
2024-03-30T02:28:26.728Z,43.6527
2024-03-30T02:29:28.360Z,43.6501
2024-03-30T02:30:29.802Z,43.6349
2024-03-30T02:31:31.308Z,43.6184
2024-03-30T02:32:32.856Z,43.6217
2024-03-30T02:33:34.386Z,43.6714
2024-03-30T02:34:35.904Z,43.6873
2024-03-30T02:35:37.452Z,43.6826
2024-03-30T02:36:38.976Z,43.6753
2024-03-30T02:37:40.500Z,43.6715
2024-03-30T02:38:42.134Z,43.6665
2024-03-30T02:39:43.553Z,43.6532
2024-03-30T02:40:45.094Z,43.6624
2024-03-30T02:41:46.625Z,43.6851
2024-03-30T02:42:48.136Z,43.7008
2024-03-30T02:43:49.679Z,43.7117
2024-03-30T02:44:51.205Z,43.7045
2024-03-30T02:45:52.738Z,43.7035
2024-03-30T02:46:54.286Z,43.7261
2024-03-30T02:47:55.802Z,43.7364
2024-03-30T02:48:57.326Z,43.7009
2024-03-30T02:49:58.942Z,43.6922
2024-03-30T02:51:00.390Z,43.6934
2024-03-30T02:52:01.911Z,43.6929
2024-03-30T02:53:03.531Z,43.7171
2024-03-30T02:54:04.987Z,43.7164
2024-03-30T02:55:06.499Z,43.7028
2024-03-30T02:56:08.024Z,43.7058
2024-03-30T02:57:09.553Z,43.6629
2024-03-30T02:58:11.074Z,43.6043
2024-03-30T02:59:12.737Z,43.5679
2024-03-30T03:00:14.164Z,43.5854
2024-03-30T03:01:15.691Z,43.6246
2024-03-30T03:02:17.199Z,43.6476
2024-03-30T03:03:18.724Z,43.5911
2024-03-30T03:04:20.261Z,43.5223
2024-03-30T03:05:21.792Z,43.5253
2024-03-30T03:06:23.322Z,43.5627
2024-03-30T03:07:24.841Z,43.5482
2024-03-30T03:08:26.391Z,43.5886
2024-03-30T03:09:27.909Z,43.6277
2024-03-30T03:10:29.516Z,43.5945
2024-03-30T03:11:30.969Z,43.5691
2024-03-30T03:12:32.511Z,43.5924
2024-03-30T03:13:34.032Z,43.6270
2024-03-30T03:14:35.654Z,43.6341
2024-03-30T03:15:37.185Z,43.6083
2024-03-30T03:16:38.643Z,43.6125
2024-03-30T03:17:40.174Z,43.5969
2024-03-30T03:18:41.678Z,43.5884
2024-03-30T03:19:43.219Z,43.6235
2024-03-30T03:20:44.826Z,43.6322
2024-03-30T03:21:46.269Z,43.6625
2024-03-30T03:22:47.810Z,43.6811
2024-03-30T03:23:49.324Z,43.7103
2024-03-30T03:24:50.882Z,43.7000
2024-03-30T03:25:52.460Z,43.6769
2024-03-30T03:26:53.932Z,43.6844
2024-03-30T03:27:55.466Z,43.6577
2024-03-30T03:28:57.077Z,43.6557
2024-03-30T03:29:58.515Z,43.7077
2024-03-30T03:31:00.118Z,43.7590
2024-03-30T03:32:01.672Z,43.7509
2024-03-30T03:33:03.245Z,43.7667
2024-03-30T03:34:04.690Z,43.7757
2024-03-30T03:35:06.236Z,43.7326
2024-03-30T03:36:07.728Z,43.7235
2024-03-30T03:37:09.350Z,43.7389
2024-03-30T03:38:10.802Z,43.7621
2024-03-30T03:39:12.350Z,43.7412
2024-03-30T03:40:13.862Z,43.7300
2024-03-30T03:41:15.392Z,43.7329
2024-03-30T03:42:16.916Z,43.7032
2024-03-30T03:43:18.446Z,43.6770
2024-03-30T03:44:19.976Z,43.7168
2024-03-30T03:45:21.520Z,43.7590
2024-03-30T03:46:23.021Z,43.7653
2024-03-30T03:47:24.638Z,43.7770
2024-03-30T03:48:26.112Z,43.7836
2024-03-30T03:49:27.618Z,43.7837
2024-03-30T03:50:29.221Z,43.8057
2024-03-30T03:51:30.658Z,43.7933
2024-03-30T03:52:32.213Z,43.7846
2024-03-30T03:53:33.728Z,43.7631
2024-03-30T03:54:35.347Z,43.7470
2024-03-30T03:55:36.778Z,43.7673
2024-03-30T03:56:38.334Z,43.7847
2024-03-30T03:57:39.859Z,43.7887
2024-03-30T03:58:41.386Z,43.7460
2024-03-30T03:59:42.922Z,43.7156
2024-03-30T04:00:44.501Z,43.7105
2024-03-30T04:01:45.974Z,43.7250
2024-03-30T04:02:47.542Z,43.7068
2024-03-30T04:03:49.025Z,43.7193
2024-03-30T04:04:50.543Z,43.7082
2024-03-30T04:05:52.105Z,43.7181
2024-03-30T04:06:53.635Z,43.7265
2024-03-30T04:07:55.129Z,43.7327
2024-03-30T04:08:56.798Z,43.7397
2024-03-30T04:09:58.188Z,43.7128
2024-03-30T04:10:59.716Z,43.7136
2024-03-30T04:12:01.334Z,43.7300
2024-03-30T04:13:02.776Z,43.7083
2024-03-30T04:14:04.335Z,43.6945
2024-03-30T04:15:05.852Z,43.6901
2024-03-30T04:16:07.376Z,43.7124
2024-03-30T04:17:09.001Z,43.7251
2024-03-30T04:18:10.428Z,43.7332
2024-03-30T04:19:11.980Z,43.7700
2024-03-30T04:20:13.508Z,43.7301
2024-03-30T04:21:15.044Z,43.7104
2024-03-30T04:22:16.585Z,43.7047
2024-03-30T04:23:18.114Z,43.7169
2024-03-30T04:24:19.703Z,43.7452
2024-03-30T04:25:21.170Z,43.7249
2024-03-30T04:26:22.702Z,43.7520
2024-03-30T04:27:24.242Z,43.7677
2024-03-30T04:28:25.782Z,43.7744
2024-03-30T04:29:27.282Z,43.8063
2024-03-30T04:30:28.827Z,43.8006
2024-03-30T04:31:30.450Z,43.7600
2024-03-30T04:32:31.885Z,43.7423
2024-03-30T04:33:33.406Z,43.7618
2024-03-30T04:34:34.940Z,43.7587
2024-03-30T04:35:36.484Z,43.7611
2024-03-30T04:36:37.988Z,43.7869
2024-03-30T04:37:39.525Z,43.7791
2024-03-30T04:38:41.052Z,43.7783
2024-03-30T04:39:42.640Z,43.7955
2024-03-30T04:40:44.133Z,43.7936
2024-03-30T04:41:45.642Z,43.7916
2024-03-30T04:42:47.161Z,43.8047
2024-03-30T04:43:48.692Z,43.8002
2024-03-30T04:44:50.232Z,43.7358
2024-03-30T04:45:51.834Z,43.7550
2024-03-30T04:46:53.280Z,43.7562
2024-03-30T04:47:54.817Z,43.7254
2024-03-30T04:48:56.411Z,43.7119
2024-03-30T04:49:57.886Z,43.7248
2024-03-30T04:50:59.440Z,43.7385
2024-03-30T04:52:00.945Z,43.7836
2024-03-30T04:53:02.480Z,43.7989
2024-03-30T04:54:04.011Z,43.8335
2024-03-30T04:55:05.543Z,43.7965
2024-03-30T04:56:07.134Z,43.7885
2024-03-30T04:57:08.619Z,43.7672
2024-03-30T04:58:10.137Z,43.7905
2024-03-30T04:59:11.672Z,43.8179
2024-03-30T05:00:13.184Z,43.8093
2024-03-30T05:01:14.714Z,43.8036
2024-03-30T05:02:16.251Z,43.8210
2024-03-30T05:03:17.785Z,43.8002
2024-03-30T05:04:19.327Z,43.7849
2024-03-30T05:05:20.832Z,43.7957
2024-03-30T05:06:22.376Z,43.8136
2024-03-30T05:07:23.909Z,43.7727
2024-03-30T05:08:25.435Z,43.7600
2024-03-30T05:09:26.972Z,43.7543
2024-03-30T05:10:28.569Z,43.7271
2024-03-30T05:11:30.016Z,43.7300
2024-03-30T05:12:31.531Z,43.7350
2024-03-30T05:13:33.065Z,43.7428
2024-03-30T05:14:34.622Z,43.7640
2024-03-30T05:15:36.193Z,43.7522
2024-03-30T05:16:40.435Z,43.7674
2024-03-30T05:17:39.215Z,43.7816
2024-03-30T05:18:40.729Z,43.7855
2024-03-30T05:19:42.242Z,43.7708
2024-03-30T05:20:43.845Z,43.7660
2024-03-30T05:21:45.290Z,43.7438
2024-03-30T05:22:46.845Z,43.7203
2024-03-30T05:23:48.351Z,43.7131
2024-03-30T05:24:49.904Z,43.7356
2024-03-30T05:25:51.411Z,43.7954
2024-03-30T05:26:52.948Z,43.7744
2024-03-30T05:27:54.532Z,43.7472
2024-03-30T05:28:56.033Z,43.7457
2024-03-30T05:29:57.523Z,43.7378
2024-03-30T05:30:59.070Z,43.7459
2024-03-30T05:32:00.583Z,43.7493
2024-03-30T05:33:02.152Z,43.7332
2024-03-30T05:34:03.644Z,43.7688
2024-03-30T05:35:05.174Z,43.8047
2024-03-30T05:36:06.783Z,43.7900
2024-03-30T05:37:08.240Z,43.7714
2024-03-30T05:38:09.767Z,43.7576
2024-03-30T05:39:11.372Z,43.7400
2024-03-30T05:40:12.818Z,43.7342
2024-03-30T05:41:14.365Z,43.7011
2024-03-30T05:42:15.865Z,43.7021
2024-03-30T05:43:17.417Z,43.7265
2024-03-30T05:44:18.999Z,43.7517
2024-03-30T05:45:20.479Z,43.7209
2024-03-30T05:46:21.993Z,43.7137
2024-03-30T05:47:23.547Z,43.6976
2024-03-30T05:48:25.068Z,43.7051
2024-03-30T05:49:26.691Z,43.7604
2024-03-30T05:50:28.162Z,43.7354
2024-03-30T05:51:29.651Z,43.7301
2024-03-30T05:52:31.223Z,43.7332
2024-03-30T05:53:32.780Z,43.7595
2024-03-30T05:54:34.254Z,43.7416
2024-03-30T05:55:35.774Z,43.7746
2024-03-30T05:56:37.329Z,43.7676
2024-03-30T05:57:38.841Z,43.7834
2024-03-30T05:58:40.378Z,43.7951
2024-03-30T05:59:41.919Z,43.8025
2024-03-30T06:00:43.423Z,43.8073
2024-03-30T06:01:45.013Z,43.8251
2024-03-30T06:02:46.597Z,43.8376
2024-03-30T06:03:48.032Z,43.7969
2024-03-30T06:04:49.544Z,43.7941
2024-03-30T06:05:51.087Z,43.8557
2024-03-30T06:06:52.612Z,43.8720
2024-03-30T06:07:54.157Z,43.8455
2024-03-30T06:08:55.682Z,43.8313
2024-03-30T06:09:57.218Z,43.8249
2024-03-30T06:10:58.833Z,43.7967
2024-03-30T06:12:00.292Z,43.7681
2024-03-30T06:13:01.782Z,43.7958
2024-03-30T06:14:03.319Z,43.8356
2024-03-30T06:15:04.841Z,43.8301
2024-03-30T06:16:06.374Z,43.7865
2024-03-30T06:17:07.985Z,43.8054
2024-03-30T06:18:09.449Z,43.8285
2024-03-30T06:19:10.952Z,43.8596
2024-03-30T06:20:12.484Z,43.8480
2024-03-30T06:21:14.000Z,43.8418
2024-03-30T06:22:15.537Z,43.8155
2024-03-30T06:23:17.056Z,43.8188
2024-03-30T06:24:18.680Z,43.8370
2024-03-30T06:25:20.111Z,43.8697
2024-03-30T06:26:21.680Z,43.8622
2024-03-30T06:27:23.194Z,43.8721
2024-03-30T06:28:24.690Z,43.8649
2024-03-30T06:29:27.442Z,43.8909
2024-03-30T06:30:27.886Z,43.9113
2024-03-30T06:31:29.285Z,43.9120
2024-03-30T06:32:30.808Z,43.9273
2024-03-30T06:33:32.332Z,43.9222
2024-03-30T06:34:33.861Z,43.8830
2024-03-30T06:35:35.474Z,43.9109
2024-03-30T06:36:36.930Z,43.9368
2024-03-30T06:37:38.446Z,43.9673
2024-03-30T06:38:39.987Z,43.9624
2024-03-30T06:39:41.499Z,43.9401
2024-03-30T06:40:43.052Z,43.9857
2024-03-30T06:41:44.570Z,43.9923
2024-03-30T06:42:46.109Z,43.9747
2024-03-30T06:43:51.404Z,43.9670
2024-03-30T06:44:49.218Z,43.9448
2024-03-30T06:45:50.703Z,43.9374
2024-03-30T06:46:52.196Z,43.9801
2024-03-30T06:47:53.732Z,44.0056
2024-03-30T06:48:55.283Z,43.9802
2024-03-30T06:49:56.778Z,43.9860
2024-03-30T06:50:58.343Z,44.0115
2024-03-30T06:51:59.846Z,44.0128
2024-03-30T06:53:01.374Z,43.9978
2024-03-30T06:54:02.948Z,44.0042
2024-03-30T06:55:04.404Z,43.9675
2024-03-30T06:56:06.020Z,43.9475
2024-03-30T06:57:07.490Z,43.9649
2024-03-30T06:58:08.996Z,43.9940
2024-03-30T06:59:10.520Z,43.9837
2024-03-30T07:00:12.066Z,43.9791
2024-03-30T07:01:13.682Z,43.9748
2024-03-30T07:02:15.116Z,43.9931
2024-03-30T07:03:16.642Z,44.0296
2024-03-30T07:04:18.153Z,44.0217
2024-03-30T07:05:19.688Z,44.0192
2024-03-30T07:06:21.214Z,44.0323
2024-03-30T07:07:22.742Z,44.0130
2024-03-30T07:08:24.375Z,44.0029
2024-03-30T07:09:25.807Z,44.0188
2024-03-30T07:10:27.326Z,43.9956
2024-03-30T07:11:28.852Z,44.0218
2024-03-30T07:12:32.750Z,44.0456
2024-03-30T07:13:31.895Z,44.0396
2024-03-30T07:14:33.517Z,44.0590
2024-03-30T07:15:34.975Z,44.0703
2024-03-30T07:16:36.567Z,44.0808
2024-03-30T07:17:38.038Z,44.0740
2024-03-30T07:18:39.542Z,44.0719
2024-03-30T07:19:41.095Z,44.0874
2024-03-30T07:20:42.609Z,44.0483
2024-03-30T07:21:44.105Z,44.0388
2024-03-30T07:22:45.732Z,44.0785
2024-03-30T07:23:47.180Z,44.1076
2024-03-30T07:24:48.702Z,44.1285
2024-03-30T07:25:50.240Z,44.1570
2024-03-30T07:26:51.751Z,44.1652
2024-03-30T07:27:53.268Z,44.1698
2024-03-30T07:28:54.924Z,44.1558
2024-03-30T07:29:56.351Z,44.1721
2024-03-30T07:30:57.867Z,44.1912
2024-03-30T07:31:59.395Z,44.2167
2024-03-30T07:33:01.020Z,44.1541
2024-03-30T07:34:02.527Z,44.1266
2024-03-30T07:35:04.089Z,44.1327
2024-03-30T07:36:05.622Z,44.1359
2024-03-30T07:37:07.220Z,44.1538
2024-03-30T07:38:08.629Z,44.1227
2024-03-30T07:39:10.175Z,44.0675
2024-03-30T07:40:11.713Z,44.0608
2024-03-30T07:41:13.233Z,44.1058
2024-03-30T07:42:14.772Z,44.1291
2024-03-30T07:43:16.286Z,44.1719
2024-03-30T07:44:17.829Z,44.1782
2024-03-30T07:45:19.338Z,44.1525
2024-03-30T07:46:20.943Z,44.2006
2024-03-30T07:47:22.375Z,44.2050
2024-03-30T07:48:23.918Z,44.1769
2024-03-30T07:49:25.434Z,44.1476
2024-03-30T07:50:27.015Z,44.1594
2024-03-30T07:51:28.503Z,44.1785
2024-03-30T07:52:30.036Z,44.2405
2024-03-30T07:53:31.589Z,44.1993
2024-03-30T07:54:33.166Z,44.2062
2024-03-30T07:55:34.651Z,44.2359
2024-03-30T07:56:36.159Z,44.2442
2024-03-30T07:57:37.727Z,44.2487
2024-03-30T07:58:39.203Z,44.2371
2024-03-30T07:59:40.733Z,44.2659
2024-03-30T08:00:42.289Z,44.2495
2024-03-30T08:01:43.804Z,44.2784
2024-03-30T08:02:45.349Z,44.2977
2024-03-30T08:03:46.877Z,44.3367
2024-03-30T08:04:48.400Z,44.3383
2024-03-30T08:05:50.010Z,44.3265
2024-03-30T08:06:51.476Z,44.2957
2024-03-30T08:07:53.113Z,44.2782
2024-03-30T08:08:54.533Z,44.3070
2024-03-30T08:09:56.061Z,44.3345
2024-03-30T08:10:57.599Z,44.2962
2024-03-30T08:11:59.148Z,44.2526
2024-03-30T08:13:00.680Z,44.2358
2024-03-30T08:14:02.210Z,44.2555
2024-03-30T08:15:03.735Z,44.2749
2024-03-30T08:16:05.263Z,44.3274
2024-03-30T08:17:06.802Z,44.2937
2024-03-30T08:18:08.319Z,44.2838
2024-03-30T08:19:09.837Z,44.3035
2024-03-30T08:20:11.389Z,44.3088
2024-03-30T08:21:12.913Z,44.3488
2024-03-30T08:22:14.430Z,44.3433
2024-03-30T08:23:16.057Z,44.3525
2024-03-30T08:24:17.498Z,44.3933
2024-03-30T08:25:19.033Z,44.4059
2024-03-30T08:26:20.607Z,44.3994
2024-03-30T08:27:24.131Z,44.4093
2024-03-30T08:28:23.609Z,44.3932
2024-03-30T08:29:25.152Z,44.3419
2024-03-30T08:30:26.753Z,44.3475
2024-03-30T08:31:28.211Z,44.3457
2024-03-30T08:32:29.743Z,44.3193
2024-03-30T08:33:31.276Z,44.3140
2024-03-30T08:34:32.814Z,44.3300
2024-03-30T08:35:34.452Z,44.3319
2024-03-30T08:36:35.889Z,44.3313
2024-03-30T08:37:37.412Z,44.3877
2024-03-30T08:38:38.934Z,44.3773
2024-03-30T08:39:40.539Z,44.3865
2024-03-30T08:40:41.999Z,44.3775
2024-03-30T08:41:43.559Z,44.3747
2024-03-30T08:42:45.062Z,44.3664
2024-03-30T08:43:46.631Z,44.3888
2024-03-30T08:44:48.165Z,44.3643
2024-03-30T08:45:49.644Z,44.3568
2024-03-30T08:46:51.202Z,44.3655
2024-03-30T08:47:52.705Z,44.3911
2024-03-30T08:48:54.267Z,44.4084
2024-03-30T08:49:55.853Z,44.3634
2024-03-30T08:50:57.311Z,44.3326
2024-03-30T08:51:58.850Z,44.3491
2024-03-30T08:53:00.448Z,44.3485
2024-03-30T08:54:01.928Z,44.3373
2024-03-30T08:55:03.426Z,44.3475
2024-03-30T08:56:04.961Z,44.3750
2024-03-30T08:57:06.535Z,44.3880
2024-03-30T08:58:08.007Z,44.3834
2024-03-30T08:59:09.551Z,44.3797
2024-03-30T09:00:11.150Z,44.3591
2024-03-30T09:01:12.642Z,44.3610
2024-03-30T09:02:14.137Z,44.3643
2024-03-30T09:03:15.664Z,44.3514
2024-03-30T09:04:17.263Z,44.3834
2024-03-30T09:05:18.725Z,44.3867
2024-03-30T09:06:20.250Z,44.4024
2024-03-30T09:07:21.833Z,44.4090
2024-03-30T09:08:23.326Z,44.4164
2024-03-30T09:09:24.858Z,44.4570
2024-03-30T09:10:26.385Z,44.4721
2024-03-30T09:11:27.979Z,44.4485
2024-03-30T09:12:29.434Z,44.4702
2024-03-30T09:13:30.988Z,44.4705
2024-03-30T09:14:32.565Z,44.4922
2024-03-30T09:15:34.019Z,44.4988
2024-03-30T09:16:35.542Z,44.4806
2024-03-30T09:17:37.077Z,44.4945
2024-03-30T09:18:38.614Z,44.5113
2024-03-30T09:19:40.130Z,44.5028
2024-03-30T09:20:41.665Z,44.5054
2024-03-30T09:21:43.197Z,44.4969
2024-03-30T09:22:44.737Z,44.5292
2024-03-30T09:23:46.316Z,44.5102
2024-03-30T09:24:47.816Z,44.5083
2024-03-30T09:25:49.309Z,44.5619
2024-03-30T09:26:50.847Z,44.6058
2024-03-30T09:27:52.356Z,44.6083
2024-03-30T09:28:53.894Z,44.6048
2024-03-30T09:29:55.440Z,44.5471
2024-03-30T09:30:56.950Z,44.5199
2024-03-30T09:31:58.478Z,44.5053
2024-03-30T09:33:00.087Z,44.5197
2024-03-30T09:34:01.549Z,44.5114
2024-03-30T09:35:03.143Z,44.5441
2024-03-30T09:36:04.606Z,44.5539
2024-03-30T09:37:06.140Z,44.6022
2024-03-30T09:38:07.683Z,44.6232
2024-03-30T09:39:09.232Z,44.6274
2024-03-30T09:40:10.724Z,44.6049
2024-03-30T09:41:12.248Z,44.6032
2024-03-30T09:42:13.801Z,44.5836
2024-03-30T09:43:15.427Z,44.5745
2024-03-30T09:44:16.880Z,44.6037
2024-03-30T09:45:18.390Z,44.6047
2024-03-30T09:46:19.944Z,44.6172
2024-03-30T09:47:21.433Z,44.6518
2024-03-30T09:48:22.963Z,44.6313
2024-03-30T09:49:24.569Z,44.6416
2024-03-30T09:50:26.020Z,44.6830
2024-03-30T09:51:27.544Z,44.6807
2024-03-30T09:52:29.085Z,44.6425
2024-03-30T09:53:30.624Z,44.6763
2024-03-30T09:54:32.146Z,44.6460
2024-03-30T09:55:33.737Z,44.6308
2024-03-30T09:56:35.214Z,44.5767
2024-03-30T09:57:37.375Z,44.5822
2024-03-30T09:58:38.253Z,44.5822
2024-03-30T09:59:39.884Z,44.6184
2024-03-30T10:00:41.367Z,44.6105
2024-03-30T10:01:42.830Z,44.6042
2024-03-30T10:02:44.473Z,44.6216
2024-03-30T10:03:45.995Z,44.6622
2024-03-30T10:04:47.419Z,44.6822
2024-03-30T10:05:48.961Z,44.6847
2024-03-30T10:06:50.510Z,44.6997
2024-03-30T10:07:52.047Z,44.7356
2024-03-30T10:08:53.636Z,44.7422
2024-03-30T10:09:55.091Z,44.7407
2024-03-30T10:10:56.605Z,44.7142
2024-03-30T10:11:58.128Z,44.7034
2024-03-30T10:12:59.664Z,44.7410
2024-03-30T10:14:07.355Z,44.7097
2024-03-30T10:15:02.717Z,44.6548
2024-03-30T10:16:04.379Z,44.6896
2024-03-30T10:17:05.786Z,44.6590
2024-03-30T10:18:07.324Z,44.6775
2024-03-30T10:19:08.848Z,44.7018
2024-03-30T10:20:10.370Z,44.7282
2024-03-30T10:21:11.899Z,44.8047
2024-03-30T10:22:13.425Z,44.7942
2024-03-30T10:23:14.955Z,44.7993
2024-03-30T10:24:16.549Z,44.8204
2024-03-30T10:25:18.003Z,44.8302
2024-03-30T10:26:19.537Z,44.7659
2024-03-30T10:27:21.064Z,44.7998
2024-03-30T10:28:22.619Z,44.8372
2024-03-30T10:29:24.134Z,44.8256
2024-03-30T10:30:25.649Z,44.8466
2024-03-30T10:31:27.196Z,44.8496
2024-03-30T10:32:28.865Z,44.8401
2024-03-30T10:33:30.263Z,44.8287
2024-03-30T10:34:31.781Z,44.8550
2024-03-30T10:35:33.435Z,44.9068
2024-03-30T10:36:34.838Z,44.9534
2024-03-30T10:37:36.395Z,44.9342
2024-03-30T10:38:37.896Z,44.8909
2024-03-30T10:39:39.447Z,44.8565
2024-03-30T10:40:40.982Z,44.8765
2024-03-30T10:41:42.575Z,44.9034
2024-03-30T10:42:44.047Z,44.8971
2024-03-30T10:43:45.554Z,44.8912
2024-03-30T10:44:47.118Z,44.8846
2024-03-30T10:45:48.627Z,44.8241
2024-03-30T10:46:50.177Z,44.8401
2024-03-30T10:47:51.679Z,44.8445
2024-03-30T10:48:53.213Z,44.8427
2024-03-30T10:49:54.752Z,44.8284
2024-03-30T10:50:56.284Z,44.8215
2024-03-30T10:51:57.816Z,44.8294
2024-03-30T10:52:59.347Z,44.8363
2024-03-30T10:54:00.880Z,44.8663
2024-03-30T10:55:02.480Z,44.9000
2024-03-30T10:56:03.969Z,44.9444
2024-03-30T10:57:05.460Z,44.9709
2024-03-30T10:58:06.987Z,45.0726
2024-03-30T10:59:08.532Z,45.0740
2024-03-30T11:00:10.047Z,45.0926
2024-03-30T11:01:11.577Z,45.1191
2024-03-30T11:02:13.152Z,45.1681
2024-03-30T11:03:14.694Z,45.1645
2024-03-30T11:04:16.163Z,45.1755
2024-03-30T11:05:17.716Z,45.2180
2024-03-30T11:06:19.227Z,45.1852
2024-03-30T11:07:20.773Z,45.1383
2024-03-30T11:08:22.296Z,45.1417
2024-03-30T11:09:23.805Z,45.0938
2024-03-30T11:10:25.354Z,45.0344
2024-03-30T11:11:26.896Z,45.0233
2024-03-30T11:12:28.402Z,45.1203
2024-03-30T11:13:29.909Z,45.1513
2024-03-30T11:14:31.451Z,45.0791
2024-03-30T11:15:33.048Z,45.1542
2024-03-30T11:16:34.499Z,45.2158
2024-03-30T11:17:36.024Z,45.2700
2024-03-30T11:18:37.576Z,45.3487
2024-03-30T11:19:39.077Z,45.4287
2024-03-30T11:20:40.605Z,45.4103
2024-03-30T11:21:42.159Z,45.3616
2024-03-30T11:22:43.648Z,45.2790
2024-03-30T11:23:45.265Z,45.2310
2024-03-30T11:24:46.751Z,45.2422
2024-03-30T11:25:48.241Z,45.2171
2024-03-30T11:26:49.783Z,45.2281
2024-03-30T11:27:51.319Z,45.2004
2024-03-30T11:28:52.832Z,45.1715
2024-03-30T11:29:54.358Z,45.1571
2024-03-30T11:30:55.894Z,45.1915
2024-03-30T11:31:57.498Z,45.2135
2024-03-30T11:32:58.947Z,45.2384
2024-03-30T11:34:00.476Z,45.2403
2024-03-30T11:35:03.472Z,45.2417
2024-03-30T11:36:03.589Z,45.2078
2024-03-30T11:37:05.129Z,45.2884
2024-03-30T11:38:06.639Z,45.3067
2024-03-30T11:39:08.284Z,45.2872
2024-03-30T11:40:09.711Z,45.2884
2024-03-30T11:41:11.247Z,45.2674
2024-03-30T11:42:12.778Z,45.2837
2024-03-30T11:43:14.296Z,45.2992
2024-03-30T11:44:15.816Z,45.3252
2024-03-30T11:45:17.342Z,45.3318
2024-03-30T11:46:18.969Z,45.3142
2024-03-30T11:47:20.420Z,45.3166
2024-03-30T11:48:21.948Z,45.3179
2024-03-30T11:49:23.509Z,45.3272
2024-03-30T11:50:25.005Z,45.3479
2024-03-30T11:51:26.540Z,45.3523
2024-03-30T11:52:28.038Z,45.2983
2024-03-30T11:53:29.600Z,45.2643
2024-03-30T11:54:31.120Z,45.2669
2024-03-30T11:55:32.658Z,45.2692
2024-03-30T11:56:34.186Z,45.2876
2024-03-30T11:57:35.765Z,45.2699
2024-03-30T11:58:38.872Z,45.2680
2024-03-30T11:59:38.787Z,45.2842
2024-03-30T12:00:40.302Z,45.2914
2024-03-30T12:01:41.843Z,45.2873
2024-03-30T12:02:43.353Z,45.2980
2024-03-30T12:03:44.888Z,45.3315
2024-03-30T12:04:46.430Z,45.3560
2024-03-30T12:05:47.957Z,45.4509
2024-03-30T12:06:49.472Z,45.3726
2024-03-30T12:07:51.023Z,45.2994
2024-03-30T12:08:52.560Z,45.2771
2024-03-30T12:09:54.109Z,45.2197
2024-03-30T12:10:55.643Z,45.3374
2024-03-30T12:11:57.150Z,45.4331
2024-03-30T12:12:58.694Z,45.4375
2024-03-30T12:14:00.201Z,45.3226
2024-03-30T12:15:01.764Z,45.1930
2024-03-30T12:16:03.272Z,45.2066
2024-03-30T12:17:04.805Z,45.1443
2024-03-30T12:18:06.299Z,45.1235
2024-03-30T12:19:07.847Z,45.0898
2024-03-30T12:20:09.395Z,45.1358
2024-03-30T12:21:10.991Z,44.9906
2024-03-30T12:22:13.343Z,44.9904
2024-03-30T12:23:24.589Z,44.9945
2024-03-30T12:24:17.245Z,45.0348